Time;durP1;ratioP1;P1;durP2;ratioP2;P2;SDS_P1;SDS_P2;PMS_P1;PMS_P2;Temp;Humidity;BMP_temperature;BMP_pressure;BME280_temperature;BME280_humidity;BME280_pressure;Samples;Min_cycle;Max_cycle;Signal;HPM_P1;HPM_P2
2023/04/10 00:01:23;;;;;;;11.23;7.75;;;6.10;99.90;;;;;;5229285;28;20356;-70
2023/04/10 00:03:56;;;;;;;12.20;7.47;;;6.10;99.90;;;;;;5217095;28;20070;-71
2023/04/10 00:06:28;;;;;;;12.65;7.00;;;6.10;99.90;;;;;;5223170;28;20046;-71
2023/04/10 00:09:01;;;;;;;13.65;8.57;;;6.10;99.90;;;;;;5218046;28;20052;-68
2023/04/10 00:11:34;;;;;;;10.48;6.68;;;6.10;99.90;;;;;;5200427;28;20032;-72
2023/04/10 00:14:05;;;;;;;14.88;8.18;;;6.10;99.90;;;;;;5200738;28;20036;-69
2023/04/10 00:16:36;;;;;;;15.48;8.32;;;6.10;99.90;;;;;;5199481;28;20036;-70
2023/04/10 00:19:10;;;;;;;13.00;7.47;;;6.20;99.90;;;;;;5199799;28;20039;-72
2023/04/10 00:21:46;;;;;;;14.20;8.45;;;6.10;99.90;;;;;;5199494;28;20033;-70
2023/04/10 00:24:17;;;;;;;12.55;8.23;;;6.10;99.90;;;;;;5197243;28;20036;-72
2023/04/10 00:26:55;;;;;;;11.18;7.25;;;6.10;99.90;;;;;;5215910;28;20352;-70
2023/04/10 00:29:26;;;;;;;12.50;7.57;;;6.00;99.90;;;;;;5218951;28;20039;-72
2023/04/10 00:31:58;;;;;;;11.40;7.03;;;6.00;99.90;;;;;;5210006;28;20036;-71
2023/04/10 00:34:29;;;;;;;13.80;7.40;;;6.00;99.90;;;;;;5223246;28;20344;-71
2023/04/10 00:37:00;;;;;;;14.77;8.43;;;6.00;99.90;;;;;;5219376;28;20269;-70
2023/04/10 00:39:31;;;;;;;12.35;7.07;;;6.00;99.90;;;;;;5195913;28;20033;-70
2023/04/10 00:42:10;;;;;;;11.55;7.35;;;6.00;99.90;;;;;;5179812;28;20058;-72
2023/04/10 00:44:42;;;;;;;13.57;8.10;;;6.00;99.90;;;;;;5187606;28;20036;-71
2023/04/10 00:47:13;;;;;;;11.60;7.18;;;6.10;99.90;;;;;;5216008;28;20059;-68
2023/04/10 00:49:47;;;;;;;12.38;7.70;;;6.10;99.90;;;;;;5234721;28;20030;-71
2023/04/10 00:52:19;;;;;;;10.73;7.40;;;6.10;99.90;;;;;;5199918;28;20490;-71
2023/04/10 00:54:51;;;;;;;11.13;7.88;;;6.00;99.90;;;;;;5199576;28;20032;-73
2023/04/10 00:57:28;;;;;;;14.07;8.20;;;6.00;99.90;;;;;;5195249;28;20032;-71
2023/04/10 01:00:00;;;;;;;11.60;7.13;;;6.00;99.90;;;;;;5229946;28;20341;-71
2023/04/10 01:02:31;;;;;;;13.65;7.65;;;5.90;99.90;;;;;;5256330;22;20060;-70
2023/04/10 01:05:03;;;;;;;14.50;8.38;;;5.90;99.90;;;;;;5165503;28;20067;-71
2023/04/10 01:07:58;;;;;;;12.60;7.63;;;5.90;99.90;;;;;;5186171;28;20039;-71
2023/04/10 01:10:32;;;;;;;10.50;7.20;;;5.80;99.90;;;;;;5177648;28;20028;-71
2023/04/10 01:13:45;;;;;;;12.82;7.80;;;5.80;99.90;;;;;;5174445;28;20045;-70
2023/04/10 01:16:42;;;;;;;11.95;7.57;;;5.90;99.90;;;;;;5209060;28;20221;-70
2023/04/10 01:19:37;;;;;;;13.60;7.90;;;5.90;99.90;;;;;;5196493;28;20262;-68
2023/04/10 01:22:10;;;;;;;;;;;6.00;99.90;;;;;;5199792;28;20041;-71
2023/04/10 01:25:30;;;;;;;13.00;7.72;;;6.00;99.90;;;;;;5199308;28;19909;-71
2023/04/10 01:28:25;;;;;;;11.82;7.00;;;6.10;99.90;;;;;;5197159;28;20599;-70
2023/04/10 01:31:00;;;;;;;12.10;7.90;;;6.10;99.90;;;;;;5197146;28;20037;-68
2023/04/10 01:33:49;;;;;;;13.05;7.82;;;6.10;99.90;;;;;;5180006;28;20032;-70
2023/04/10 01:36:26;;;;;;;10.93;6.95;;;6.10;99.90;;;;;;5215695;28;20191;-70
2023/04/10 01:39:01;;;;;;;11.32;7.22;;;6.10;99.90;;;;;;5214571;28;20029;-72
2023/04/10 01:41:35;;;;;;;10.90;7.25;;;6.00;99.90;;;;;;5196191;28;20049;-71
2023/04/10 01:44:14;;;;;;;12.05;7.45;;;6.00;99.90;;;;;;5197334;28;20025;-71
2023/04/10 01:46:51;;;;;;;13.10;8.43;;;6.00;99.90;;;;;;5179004;28;20063;-71
2023/04/10 01:49:27;;;;;;;13.65;8.10;;;6.00;99.90;;;;;;5200715;28;20040;-73
2023/04/10 01:52:02;;;;;;;12.02;7.20;;;6.00;99.90;;;;;;5210452;28;20059;-71
2023/04/10 01:54:39;;;;;;;12.15;7.13;;;5.90;99.90;;;;;;5213780;28;20147;-71
2023/04/10 01:57:14;;;;;;;13.95;7.80;;;5.90;99.90;;;;;;5196314;28;20067;-71
2023/04/10 01:59:45;;;;;;;13.32;7.32;;;5.90;99.90;;;;;;5180050;28;20025;-71
2023/04/10 02:02:22;;;;;;;13.43;8.38;;;5.80;99.90;;;;;;5179603;28;20052;-69
2023/04/10 02:04:53;;;;;;;14.18;7.55;;;5.80;99.90;;;;;;5207001;28;20048;-71
2023/04/10 02:07:29;;;;;;;10.75;6.63;;;5.80;99.90;;;;;;5219454;28;20025;-72
2023/04/10 02:10:10;;;;;;;13.23;7.57;;;5.80;99.90;;;;;;5201564;28;20028;-71
2023/04/10 02:12:56;;;;;;;10.82;6.88;;;5.80;99.90;;;;;;5213019;28;20048;-70
2023/04/10 02:15:34;;;;;;;12.40;7.90;;;5.80;99.90;;;;;;5194100;28;20036;-71
2023/04/10 02:18:07;;;;;;;12.75;7.20;;;5.80;99.90;;;;;;5190590;28;20043;-69
2023/04/10 02:20:40;;;;;;;11.10;7.20;;;5.70;99.90;;;;;;5235331;28;20383;-70
2023/04/10 02:23:14;;;;;;;11.55;6.97;;;5.60;99.90;;;;;;5201805;28;20032;-70
2023/04/10 02:25:48;;;;;;;11.05;7.35;;;5.50;99.90;;;;;;5235474;28;20036;-70
2023/04/10 02:28:22;;;;;;;10.55;7.07;;;5.50;99.90;;;;;;5203576;28;20051;-70
2023/04/10 02:30:55;;;;;;;13.77;7.47;;;5.50;99.90;;;;;;5195652;28;20036;-71
2023/04/10 02:33:26;;;;;;;13.88;7.50;;;5.40;99.90;;;;;;5219088;28;20368;-70
2023/04/10 02:36:00;;;;;;;12.73;7.70;;;5.40;99.90;;;;;;5214313;28;20356;-69
2023/04/10 02:38:31;;;;;;;12.10;7.55;;;5.40;99.90;;;;;;5198062;28;20347;-69
2023/04/10 02:41:05;;;;;;;15.10;7.13;;;5.40;99.90;;;;;;5197876;28;20205;-71
2023/04/10 02:43:40;;;;;;;13.18;7.30;;;5.40;99.90;;;;;;5214007;28;20041;-71
2023/04/10 02:46:11;;;;;;;12.27;7.00;;;5.40;99.90;;;;;;5213331;28;20032;-71
2023/04/10 02:48:51;;;;;;;14.27;7.78;;;5.30;99.90;;;;;;5208180;28;20049;-70
2023/04/10 02:51:22;;;;;;;11.45;7.47;;;5.30;99.90;;;;;;5201228;28;20033;-70
2023/04/10 02:53:53;;;;;;;12.70;7.10;;;5.30;99.90;;;;;;5208476;28;20533;-70
2023/04/10 02:56:26;;;;;;;12.00;7.18;;;5.30;99.90;;;;;;5214448;28;20378;-69
2023/04/10 02:59:03;;;;;;;13.77;6.75;;;5.30;99.90;;;;;;5199845;28;20055;-70
2023/04/10 03:01:35;;;;;;;12.32;6.95;;;5.30;99.90;;;;;;5231829;28;20048;-70
2023/04/10 03:04:10;;;;;;;12.60;7.68;;;5.40;99.90;;;;;;5231202;28;20050;-71
2023/04/10 03:06:47;;;;;;;14.38;7.57;;;5.40;99.90;;;;;;5174006;28;20238;-70
2023/04/10 03:09:23;;;;;;;13.98;7.30;;;5.30;99.90;;;;;;5218979;28;20545;-72
2023/04/10 03:11:55;;;;;;;13.10;7.45;;;5.30;99.90;;;;;;5208292;28;20040;-72
2023/04/10 03:14:26;;;;;;;9.80;6.43;;;5.30;99.90;;;;;;5228056;28;20052;-69
2023/04/10 03:17:06;;;;;;;13.00;6.63;;;5.40;99.90;;;;;;5215041;28;20060;-69
2023/04/10 03:19:40;;;;;;;15.98;7.45;;;5.40;99.90;;;;;;5213681;28;20032;-70
2023/04/10 03:22:12;;;;;;;12.40;6.18;;;5.30;99.90;;;;;;5216318;28;20116;-71
2023/04/10 03:24:47;;;;;;;12.98;7.43;;;5.30;99.90;;;;;;5200751;28;20332;-70
2023/04/10 03:27:21;;;;;;;10.40;7.03;;;5.30;99.90;;;;;;5217855;28;20033;-71
2023/04/10 03:29:57;;;;;;;13.32;7.65;;;5.30;99.90;;;;;;5231432;28;20032;-70
2023/04/10 03:32:34;;;;;;;11.50;6.32;;;5.30;99.90;;;;;;5224740;28;20036;-70
2023/04/10 03:35:12;;;;;;;11.80;6.78;;;5.30;99.90;;;;;;5202837;28;20344;-69
2023/04/10 03:37:45;;;;;;;12.73;6.35;;;5.30;99.90;;;;;;5219681;28;20029;-70
2023/04/10 03:40:17;;;;;;;14.93;7.22;;;5.20;99.90;;;;;;5217588;28;20040;-69
2023/04/10 03:42:48;;;;;;;11.30;6.40;;;5.20;99.90;;;;;;5217845;28;20035;-73
2023/04/10 03:45:19;;;;;;;10.98;6.75;;;5.20;99.90;;;;;;5252676;28;20028;-72
2023/04/10 03:47:51;;;;;;;12.35;7.50;;;5.20;99.90;;;;;;5213684;28;20444;-72
2023/04/10 03:50:22;;;;;;;12.48;7.75;;;5.20;99.90;;;;;;5186020;28;20033;-73
2023/04/10 03:52:54;;;;;;;13.35;7.63;;;5.20;99.90;;;;;;5215915;28;20043;-70
2023/04/10 03:55:28;;;;;;;12.88;7.25;;;5.20;99.90;;;;;;5214413;28;20029;-71
2023/04/10 03:58:02;;;;;;;10.25;6.65;;;5.20;99.90;;;;;;5211863;28;20051;-73
2023/04/10 04:00:37;;;;;;;13.50;6.97;;;5.20;99.90;;;;;;5176730;28;20025;-71
2023/04/10 04:03:10;;;;;;;12.68;6.80;;;5.20;99.90;;;;;;5217235;28;20036;-73
2023/04/10 04:05:45;;;;;;;11.38;6.35;;;5.20;99.90;;;;;;5206430;28;20053;-73
2023/04/10 04:08:21;;;;;;;9.73;6.53;;;5.20;99.90;;;;;;5217532;28;20020;-72
2023/04/10 04:10:53;;;;;;;10.23;7.00;;;5.20;99.90;;;;;;5231943;28;20339;-72
2023/04/10 04:13:27;;;;;;;11.43;6.43;;;5.20;99.90;;;;;;5214356;28;20039;-73
2023/04/10 04:16:06;;;;;;;12.13;7.43;;;5.20;99.90;;;;;;5218241;28;20125;-70
2023/04/10 04:18:44;;;;;;;10.25;6.78;;;5.30;99.90;;;;;;5217168;28;20028;-71
2023/04/10 04:21:15;;;;;;;13.23;6.90;;;5.30;99.90;;;;;;5200955;28;20108;-69
2023/04/10 04:23:46;;;;;;;10.43;6.88;;;5.30;99.90;;;;;;5216760;28;20079;-70
2023/04/10 04:26:17;;;;;;;11.77;6.57;;;5.20;99.90;;;;;;5216152;28;20031;-71
2023/04/10 04:28:51;;;;;;;10.98;6.95;;;5.20;99.90;;;;;;5212208;28;20047;-72
2023/04/10 04:31:23;;;;;;;11.63;7.88;;;5.30;99.90;;;;;;5202340;28;20048;-71
2023/04/10 04:34:03;;;;;;;9.43;5.57;;;5.20;99.90;;;;;;5211982;28;20033;-70
2023/04/10 04:36:35;;;;;;;9.65;6.72;;;5.20;99.90;;;;;;5212529;28;20051;-72
2023/04/10 04:39:07;;;;;;;13.73;7.55;;;5.20;99.90;;;;;;5216065;28;20040;-71
2023/04/10 04:41:41;;;;;;;11.38;7.55;;;5.20;99.90;;;;;;5200118;28;20048;-70
2023/04/10 04:44:17;;;;;;;13.18;8.25;;;5.20;99.90;;;;;;5210326;28;20045;-70
2023/04/10 04:46:48;;;;;;;11.13;6.88;;;5.20;99.90;;;;;;5213253;28;20491;-71
2023/04/10 04:49:19;;;;;;;10.52;6.20;;;5.10;99.90;;;;;;5214317;28;20156;-72
2023/04/10 04:51:53;;;;;;;12.98;7.53;;;5.10;99.90;;;;;;5234860;28;20074;-72
2023/04/10 04:54:27;;;;;;;12.75;7.55;;;5.10;99.90;;;;;;5199591;28;20052;-72
2023/04/10 04:57:00;;;;;;;14.27;7.75;;;5.10;99.90;;;;;;5198395;28;20214;-70
2023/04/10 04:59:31;;;;;;;10.55;6.40;;;5.10;99.90;;;;;;5210559;28;20039;-73
2023/04/10 05:02:04;;;;;;;10.55;6.82;;;5.20;99.90;;;;;;5186221;28;20040;-70
2023/04/10 05:04:37;;;;;;;11.77;7.28;;;5.30;99.90;;;;;;5202198;28;20052;-71
2023/04/10 05:07:09;;;;;;;11.32;7.15;;;5.40;99.90;;;;;;5232949;28;20054;-71
2023/04/10 05:09:46;;;;;;;10.88;6.95;;;5.50;99.90;;;;;;5199016;28;20025;-72
2023/04/10 05:12:19;;;;;;;12.50;7.57;;;5.70;99.90;;;;;;5218273;28;20037;-72
2023/04/10 05:14:53;;;;;;;9.88;6.78;;;5.80;99.90;;;;;;5233198;28;20033;-72
2023/04/10 05:17:30;;;;;;;10.53;6.97;;;5.90;99.90;;;;;;5215295;28;20036;-71
2023/04/10 05:20:01;;;;;;;10.23;6.60;;;6.00;99.90;;;;;;5216398;28;20356;-73
2023/04/10 05:22:33;;;;;;;11.10;7.00;;;6.10;99.90;;;;;;5211602;28;20056;-71
2023/04/10 05:25:09;;;;;;;10.70;6.57;;;6.20;99.90;;;;;;5211864;28;20051;-71
2023/04/10 05:27:41;;;;;;;10.10;6.57;;;6.30;99.90;;;;;;5222669;28;20029;-72
2023/04/10 05:30:12;;;;;;;9.63;6.35;;;6.40;99.90;;;;;;5198788;28;20071;-71
2023/04/10 05:32:44;;;;;;;14.05;7.25;;;6.50;99.90;;;;;;5202220;28;20044;-70
2023/04/10 05:35:16;;;;;;;11.43;6.88;;;6.60;91.80;;;;;;5216507;28;20033;-71
2023/04/10 05:37:51;;;;;;;9.13;6.85;;;6.70;58.20;;;;;;5225438;28;20450;-72
2023/04/10 05:40:25;;;;;;;9.90;5.60;;;6.70;42.60;;;;;;5205350;28;20063;-71
2023/04/10 05:42:59;;;;;;;10.32;6.93;;;6.80;27.10;;;;;;5182293;28;20036;-72
2023/04/10 05:45:33;;;;;;;27.98;16.38;;;6.90;7.70;;;;;;5215157;28;20037;-71
2023/04/10 05:48:08;;;;;;;91.32;41.63;;;7.00;6.50;;;;;;5214873;28;20468;-71
2023/04/10 05:50:45;;;;;;;101.65;48.67;;;7.10;1.00;;;;;;5233388;28;20493;-71
2023/04/10 05:53:19;;;;;;;31.80;14.48;;;7.20;1.00;;;;;;5193713;28;20078;-71
2023/04/10 05:55:51;;;;;;;33.35;18.17;;;7.20;1.00;;;;;;5199160;28;20024;-71
2023/04/10 05:58:25;;;;;;;34.05;17.60;;;7.20;1.00;;;;;;5203482;28;20025;-72
2023/04/10 06:00:57;;;;;;;39.97;21.40;;;7.30;1.00;;;;;;5225061;28;20041;-71
2023/04/10 06:03:29;;;;;;;12.65;7.65;;;7.30;1.00;;;;;;5254681;28;20028;-71
2023/04/10 06:06:03;;;;;;;15.20;9.10;;;7.40;1.00;;;;;;5212681;28;20326;-70
2023/04/10 06:08:35;;;;;;;10.75;7.68;;;7.50;1.00;;;;;;5241773;28;20310;-73
2023/04/10 06:11:08;;;;;;;21.80;16.00;;;7.60;1.00;;;;;;5245030;28;20096;-73
2023/04/10 06:13:40;;;;;;;11.68;7.80;;;7.70;1.00;;;;;;5265964;28;20036;-73
2023/04/10 06:16:13;;;;;;;11.68;7.97;;;7.70;1.00;;;;;;5264516;28;20024;-72
2023/04/10 06:18:51;;;;;;;10.45;6.95;;;7.70;1.00;;;;;;5258436;28;20033;-71
2023/04/10 06:21:22;;;;;;;10.52;6.28;;;7.70;1.00;;;;;;5224753;28;20038;-69
2023/04/10 06:23:53;;;;;;;9.02;5.97;;;7.70;1.00;;;;;;5240749;28;20028;-71
2023/04/10 06:26:27;;;;;;;9.07;5.97;;;7.80;1.00;;;;;;5240688;28;20302;-71
2023/04/10 06:29:01;;;;;;;10.82;6.43;;;7.80;1.00;;;;;;5224120;28;20036;-70
2023/04/10 06:31:35;;;;;;;8.32;6.00;;;7.80;1.00;;;;;;5257601;28;20028;-70
2023/04/10 06:34:09;;;;;;;9.25;6.28;;;7.90;1.00;;;;;;5240558;28;20032;-69
2023/04/10 06:39:49;;;;;;;12.60;7.60;;;8.00;1.00;;;;;;5256734;28;19901;-70
2023/04/10 06:42:21;;;;;;;20.95;14.50;;;7.80;1.00;;;;;;5223438;28;20032;-72
2023/04/10 06:44:52;;;;;;;14.30;10.25;;;7.70;1.00;;;;;;5223337;28;20035;-72
2023/04/10 06:47:23;;;;;;;9.00;6.25;;;7.80;1.00;;;;;;5239881;28;20047;-69
2023/04/10 06:49:55;;;;;;;21.65;17.27;;;7.90;1.00;;;;;;5223074;28;20032;-68
2023/04/10 06:52:26;;;;;;;22.55;19.33;;;8.00;1.00;;;;;;5239734;28;20114;-70
2023/04/10 06:58:27;;;;;;;16.35;12.52;;;8.00;1.00;;;;;;5239559;28;20028;-71
2023/04/10 07:01:03;;;;;;;16.48;10.95;;;7.90;1.00;;;;;;5222260;28;20036;-71
2023/04/10 07:03:40;;;;;;;10.05;7.18;;;7.90;1.00;;;;;;5213109;28;20037;-72
2023/04/10 07:06:16;;;;;;;11.55;7.47;;;8.00;1.00;;;;;;5196605;28;20060;-69
2023/04/10 07:08:52;;;;;;;11.98;9.60;;;8.20;1.00;;;;;;5221052;28;20637;-71
2023/04/10 07:11:23;;;;;;;19.83;17.70;;;8.40;1.00;;;;;;5216806;28;20355;-71
2023/04/10 07:13:58;;;;;;;9.82;7.43;;;8.80;1.00;;;;;;5236030;28;20038;-69
2023/04/10 07:16:32;;;;;;;9.45;6.60;;;8.90;1.00;;;;;;5213715;28;20037;-70
2023/04/10 07:19:06;;;;;;;;;;;8.90;1.00;;;;;;5215495;28;20542;-71
2023/04/10 07:21:37;;;;;;;9.38;6.25;;;8.80;1.00;;;;;;5232562;28;19913;-69
2023/04/10 07:24:08;;;;;;;10.88;7.00;;;8.90;1.00;;;;;;5209138;28;20048;-69
2023/04/10 07:26:43;;;;;;;10.55;6.57;;;9.00;1.00;;;;;;5217534;28;20492;-71
2023/04/10 07:29:17;;;;;;;11.63;7.10;;;9.20;1.00;;;;;;5206168;28;20373;-70
2023/04/10 07:31:48;;;;;;;12.55;7.03;;;9.50;1.00;;;;;;5198812;28;20032;-71
2023/04/10 07:34:22;;;;;;;9.52;7.25;;;9.60;1.00;;;;;;5214711;28;20050;-72
2023/04/10 07:36:56;;;;;;;10.23;7.63;;;9.60;1.00;;;;;;5195573;28;20256;-71
2023/04/10 07:39:33;;;;;;;10.02;6.28;;;9.60;1.00;;;;;;5218827;28;20032;-69
2023/04/10 07:42:05;;;;;;;8.60;6.68;;;10.00;1.00;;;;;;5245239;28;20022;-71
2023/04/10 07:44:36;;;;;;;10.18;7.13;;;9.90;1.00;;;;;;5231401;28;20037;-73
2023/04/10 07:47:07;;;;;;;13.85;7.72;;;9.90;1.00;;;;;;5210014;28;20028;-71
2023/04/10 07:49:40;;;;;;;9.65;7.20;;;10.10;1.00;;;;;;5229320;28;20030;-71
2023/04/10 07:52:11;;;;;;;10.85;7.35;;;10.20;1.00;;;;;;5207529;28;20540;-72
2023/04/10 07:54:42;;;;;;;11.35;8.05;;;10.10;1.00;;;;;;5215930;28;20040;-74
2023/04/10 07:57:13;;;;;;;11.25;7.65;;;9.80;1.00;;;;;;5244198;28;20029;-71
2023/04/10 07:59:45;;;;;;;12.32;7.97;;;10.00;1.00;;;;;;5228819;28;20032;-71
2023/04/10 08:02:16;;;;;;;11.52;7.32;;;10.00;1.00;;;;;;5219648;28;20032;-72
2023/04/10 08:04:47;;;;;;;10.80;7.45;;;9.90;1.00;;;;;;5209941;28;20298;-72
2023/04/10 08:07:25;;;;;;;13.15;7.88;;;9.90;1.00;;;;;;5198251;28;20028;-71
2023/04/10 08:09:56;;;;;;;12.90;7.63;;;10.20;1.00;;;;;;5237685;28;20062;-72
2023/04/10 08:12:27;;;;;;;11.93;8.15;;;10.30;1.00;;;;;;5218743;28;20047;-73
2023/04/10 08:14:59;;;;;;;10.57;7.72;;;10.40;1.00;;;;;;5211545;28;20039;-72
2023/04/10 08:17:30;;;;;;;12.13;8.88;;;10.60;1.00;;;;;;5224541;28;20527;-71
2023/04/10 08:20:02;;;;;;;16.80;9.32;;;10.70;1.00;;;;;;5228905;28;20039;-72
2023/04/10 08:22:33;;;;;;;10.82;7.57;;;10.90;1.00;;;;;;5222580;28;20244;-71
2023/04/10 08:25:05;;;;;;;14.20;9.48;;;11.00;1.00;;;;;;5212778;28;20032;-71
2023/04/10 08:27:36;;;;;;;15.23;9.10;;;11.10;1.00;;;;;;5208864;28;20028;-71
2023/04/10 08:30:08;;;;;;;18.50;12.48;;;11.20;1.00;;;;;;5212351;28;20309;-72
2023/04/10 08:32:41;;;;;;;14.05;8.88;;;11.10;1.00;;;;;;5211482;28;20366;-70
2023/04/10 08:35:12;;;;;;;14.40;9.45;;;11.10;1.00;;;;;;5216153;28;20319;-71
2023/04/10 08:37:43;;;;;;;14.98;10.32;;;11.40;1.00;;;;;;5214676;28;20035;-69
2023/04/10 08:40:14;;;;;;;16.23;10.00;;;11.60;1.00;;;;;;5232516;28;20210;-71
2023/04/10 08:42:46;;;;;;;15.85;9.82;;;11.80;1.00;;;;;;5207133;28;20491;-69
2023/04/10 08:45:17;;;;;;;12.98;9.15;;;11.90;1.00;;;;;;5206975;28;20406;-73
2023/04/10 08:47:52;;;;;;;12.80;8.70;;;11.60;1.00;;;;;;5222166;28;20039;-71
2023/04/10 08:50:23;;;;;;;14.07;9.75;;;11.40;1.00;;;;;;5242956;28;20020;-72
2023/04/10 08:52:57;;;;;;;50.45;45.38;;;11.20;1.00;;;;;;5208379;28;20606;-68
2023/04/10 08:55:28;;;;;;;17.35;11.70;;;11.70;1.00;;;;;;5240856;28;20044;-72
2023/04/10 08:58:00;;;;;;;14.25;9.52;;;11.80;1.00;;;;;;5229077;28;20016;-71
2023/04/10 09:00:37;;;;;;;18.90;12.18;;;11.90;1.00;;;;;;5213538;28;20202;-71
2023/04/10 09:03:13;;;;;;;19.67;14.60;;;12.10;1.00;;;;;;5236872;28;20036;-71
2023/04/10 09:05:45;;;;;;;19.10;12.60;;;11.90;1.00;;;;;;5222641;28;20345;-70
2023/04/10 09:08:16;;;;;;;16.48;11.90;;;12.00;1.00;;;;;;5221826;28;20760;-71
2023/04/10 09:10:47;;;;;;;16.75;10.23;;;12.30;1.00;;;;;;5196263;28;20571;-71
2023/04/10 09:13:43;;;;;;;16.80;9.82;;;12.20;1.00;;;;;;5223024;28;20059;-72
2023/04/10 09:16:17;;;;;;;14.60;10.27;;;11.90;1.00;;;;;;5211634;28;20054;-71
2023/04/10 09:18:50;;;;;;;16.52;11.13;;;12.20;1.00;;;;;;5213437;28;20534;-70
2023/04/10 09:21:21;;;;;;;13.95;9.60;;;12.10;1.00;;;;;;5212599;28;20028;-72
2023/04/10 09:24:00;;;;;;;21.42;14.15;;;11.70;1.00;;;;;;5217045;28;20032;-72
2023/04/10 09:26:32;;;;;;;12.57;10.02;;;11.80;1.00;;;;;;5214738;28;20598;-70
2023/04/10 09:29:06;;;;;;;16.40;10.57;;;12.20;1.00;;;;;;5230533;28;20236;-70
2023/04/10 09:31:39;;;;;;;16.75;11.30;;;12.30;1.00;;;;;;5221533;28;20037;-70
2023/04/10 09:34:12;;;;;;;16.02;10.55;;;12.70;1.00;;;;;;5225212;28;20048;-71
2023/04/10 09:36:58;;;;;;;17.55;12.23;;;12.40;1.00;;;;;;5208050;28;20051;-71
2023/04/10 09:40:00;;;;;;;13.68;10.02;;;12.60;1.00;;;;;;5218108;28;20020;-71
2023/04/10 09:42:38;;;;;;;16.77;10.23;;;12.80;1.00;;;;;;5215387;28;20024;-70
2023/04/10 09:45:09;;;;;;;16.17;10.82;;;13.30;1.00;;;;;;5222925;28;20047;-71
2023/04/10 09:47:41;;;;;;;15.45;10.73;;;13.40;1.00;;;;;;5229679;28;20028;-71
2023/04/10 09:50:12;;;;;;;18.60;11.60;;;13.10;1.00;;;;;;5215604;28;20028;-70
2023/04/10 09:52:43;;;;;;;14.02;10.48;;;13.50;1.00;;;;;;5222512;28;20024;-70
2023/04/10 09:55:18;;;;;;;16.85;12.60;;;13.20;1.00;;;;;;5226659;28;20553;-69
2023/04/10 09:57:51;;;;;;;20.20;15.43;;;12.90;1.00;;;;;;5234453;28;20035;-72
2023/04/10 10:00:26;;;;;;;14.90;10.85;;;13.20;1.00;;;;;;5215952;28;20037;-71
2023/04/10 10:03:00;;;;;;;15.65;10.55;;;13.50;1.00;;;;;;5217127;28;20031;-70
2023/04/10 10:05:31;;;;;;;15.82;10.60;;;13.40;1.00;;;;;;5201964;28;20051;-69
2023/04/10 10:08:03;;;;;;;12.68;9.20;;;13.80;1.00;;;;;;5228856;28;20028;-70
2023/04/10 10:10:45;;;;;;;15.25;10.32;;;14.40;1.00;;;;;;5246285;28;20024;-71
2023/04/10 10:13:26;;;;;;;15.20;11.30;;;14.50;1.00;;;;;;5236287;28;20020;-70
2023/04/10 10:16:11;;;;;;;14.65;10.20;;;15.00;1.00;;;;;;5248913;28;20032;-69
2023/04/10 10:19:11;;;;;;;14.95;9.65;;;16.10;1.00;;;;;;5227475;28;20036;-73
2023/04/10 10:21:44;;;;;;;16.25;10.10;;;15.80;1.00;;;;;;5249640;28;20032;-73
2023/04/10 10:24:22;;;;;;;14.43;10.45;;;16.10;1.00;;;;;;5249531;28;20217;-71
2023/04/10 10:26:58;;;;;;;14.77;10.18;;;16.50;1.00;;;;;;5229059;28;20031;-70
2023/04/10 10:29:35;;;;;;;12.85;9.68;;;16.70;1.00;;;;;;5210697;28;20043;-72
2023/04/10 10:32:07;;;;;;;14.30;9.98;;;16.80;9.10;;;;;;5242810;28;20020;-72
2023/04/10 10:34:41;;;;;;;13.05;9.25;;;17.50;10.80;;;;;;5227374;28;20033;-73
2023/04/10 10:37:14;;;;;;;12.13;9.02;;;18.70;83.10;;;;;;5214422;28;20036;-73
2023/04/10 10:40:09;;;;;;;13.15;9.80;;;18.20;99.90;;;;;;5215295;28;20036;-71
2023/04/10 10:43:00;;;;;;;14.77;11.32;;;19.10;99.90;;;;;;5246413;28;20024;-66
2023/04/10 10:46:07;;;;;;;12.75;9.38;;;18.90;99.90;;;;;;5245839;28;20025;-71
2023/04/10 10:48:41;;;;;;;13.25;11.00;;;16.20;99.90;;;;;;5224516;28;20047;-68
2023/04/10 10:51:12;;;;;;;12.68;9.85;;;15.50;99.90;;;;;;5226604;28;20032;-69
2023/04/10 10:53:44;;;;;;;12.95;9.57;;;17.60;99.90;;;;;;5218964;28;20036;-69
2023/04/10 10:56:18;;;;;;;12.43;9.73;;;19.20;99.90;;;;;;5217296;28;20054;-71
2023/04/10 10:58:56;;;;;;;11.32;8.63;;;20.00;99.90;;;;;;5241898;28;20035;-72
2023/04/10 11:01:27;;;;;;;13.10;9.55;;;20.30;99.90;;;;;;5249021;28;20026;-71
2023/04/10 11:03:58;;;;;;;14.43;10.32;;;20.90;99.90;;;;;;5226990;28;20663;-71
2023/04/10 11:06:51;;;;;;;10.45;8.57;;;20.50;99.90;;;;;;5204075;28;20040;-72
2023/04/10 11:09:47;;;;;;;12.52;9.40;;;20.20;99.90;;;;;;5230435;28;20012;-72
2023/04/10 11:12:21;;;;;;;12.13;8.40;;;18.80;99.90;;;;;;5219919;28;20027;-71
2023/04/10 11:14:57;;;;;;;15.10;9.50;;;18.30;99.90;;;;;;5214967;28;20047;-71
2023/04/10 11:17:52;;;;;;;12.20;8.98;;;19.70;99.90;;;;;;5226272;28;20349;-72
2023/04/10 11:20:27;;;;;;;13.15;9.85;;;20.40;99.90;;;;;;5242879;28;20031;-69
2023/04/10 11:23:10;;;;;;;10.40;8.00;;;20.10;99.90;;;;;;5224155;28;20249;-71
2023/04/10 11:25:54;;;;;;;19.65;16.08;;;21.80;99.90;;;;;;5228734;28;20659;-70
2023/04/10 11:28:33;;;;;;;17.25;14.80;;;23.20;99.90;;;;;;5243476;28;20024;-71
2023/04/10 11:31:22;;;;;;;11.60;8.25;;;23.60;99.90;;;;;;5204912;28;20031;-72
2023/04/10 11:33:59;;;;;;;16.30;12.15;;;21.30;99.90;;;;;;5244976;28;20496;-71
2023/04/10 11:36:34;;;;;;;15.60;12.05;;;20.70;99.90;;;;;;5238155;28;20032;-75
2023/04/10 11:39:12;;;;;;;31.27;23.77;;;21.50;99.90;;;;;;5234528;28;20029;-74
2023/04/10 11:41:45;;;;;;;22.77;16.45;;;23.50;99.90;;;;;;5253714;28;20024;-72
2023/04/10 11:44:34;;;;;;;40.47;27.48;;;24.00;99.90;;;;;;5215350;28;20036;-71
2023/04/10 11:47:07;;;;;;;80.65;54.95;;;23.60;99.90;;;;;;5213652;28;20569;-73
2023/04/10 11:49:38;;;;;;;26.27;19.67;;;22.40;99.90;;;;;;5221971;28;20230;-72
2023/04/10 11:52:10;;;;;;;126.32;92.43;;;20.90;99.90;;;;;;5225489;28;20042;-70
2023/04/10 11:54:49;;;;;;;25.40;21.85;;;19.90;99.90;;;;;;5241264;28;21160;-71
2023/04/10 11:57:21;;;;;;;15.48;11.55;;;18.40;99.90;;;;;;5217931;28;20031;-71
2023/04/10 11:59:53;;;;;;;700.33;472.17;;;18.80;99.90;;;;;;5235456;28;20049;-68
2023/04/10 12:02:26;;;;;;;412.80;268.80;;;21.30;99.90;;;;;;5211957;28;20032;-69
2023/04/10 12:04:57;;;;;;;111.63;84.55;;;21.30;99.90;;;;;;5192794;28;20047;-72
2023/04/10 12:07:30;;;;;;;527.60;328.00;;;20.40;99.90;;;;;;5235110;28;20593;-71
2023/04/10 12:10:01;;;;;;;527.00;345.17;;;19.00;99.90;;;;;;5231484;28;20071;-66
2023/04/10 12:12:39;;;;;;;66.05;42.10;;;18.40;99.90;;;;;;5213063;28;20055;-71
2023/04/10 12:15:30;;;;;;;84.93;52.25;;;18.60;99.90;;;;;;5238204;28;20051;-74
2023/04/10 12:18:07;;;;;;;207.55;116.75;;;20.10;99.90;;;;;;5229895;28;20055;-72
2023/04/10 12:20:44;;;;;;;256.40;174.32;;;21.90;99.90;;;;;;5199493;28;20036;-69
2023/04/10 12:23:18;;;;;;;230.05;142.43;;;21.20;99.90;;;;;;5225116;28;20530;-71
2023/04/10 12:25:53;;;;;;;589.08;370.27;;;20.10;99.90;;;;;;5229440;28;20028;-70
2023/04/10 12:28:24;;;;;;;782.75;464.00;;;19.10;99.90;;;;;;5226430;28;20032;-72
2023/04/10 12:30:55;;;;;;;933.35;506.67;;;18.20;99.90;;;;;;5215026;28;20033;-68
2023/04/10 12:33:26;;;;;;;125.30;57.17;;;18.90;99.90;;;;;;5207914;28;20043;-69
2023/04/10 12:36:01;;;;;;;118.13;48.63;;;20.60;99.90;;;;;;5235032;28;20029;-71
2023/04/10 12:38:43;;;;;;;684.05;371.52;;;20.50;99.90;;;;;;5226510;28;20629;-68
2023/04/10 12:41:22;;;;;;;16.95;12.38;;;19.90;99.90;;;;;;5205099;28;20031;-72
2023/04/10 12:44:12;;;;;;;11.20;8.90;;;19.00;99.90;;;;;;5241238;28;20020;-70
2023/04/10 12:46:44;;;;;;;11.70;8.85;;;17.50;99.90;;;;;;5220888;28;20032;-72
2023/04/10 12:49:17;;;;;;;10.63;8.38;;;17.60;99.90;;;;;;5204131;28;20024;-70
2023/04/10 12:51:50;;;;;;;10.55;7.30;;;19.70;99.90;;;;;;5218886;28;20036;-69
2023/04/10 12:54:40;;;;;;;10.80;7.60;;;20.70;99.90;;;;;;5230944;28;20030;-70
2023/04/10 12:57:26;;;;;;;10.30;7.97;;;20.90;99.90;;;;;;5186190;28;20547;-68
2023/04/10 12:59:58;;;;;;;12.23;8.35;;;20.20;99.90;;;;;;5242930;28;20023;-71
2023/04/10 13:02:31;;;;;;;12.52;9.32;;;19.40;99.90;;;;;;5242830;28;20036;-69
2023/04/10 13:05:06;;;;;;;;;;;19.10;99.90;;;;;;5235396;28;20490;-67
2023/04/10 13:07:40;;;;;;;11.13;9.05;;;18.10;99.90;;;;;;5220501;28;19926;-69
2023/04/10 13:10:12;;;;;;;11.77;8.95;;;17.50;99.90;;;;;;5211701;28;20042;-70
2023/04/10 13:12:43;;;;;;;231.82;207.77;;;18.60;99.90;;;;;;5208452;28;20102;-71
2023/04/10 13:15:15;;;;;;;64.78;58.63;;;20.40;99.90;;;;;;5226834;28;20042;-68
2023/04/10 13:17:56;;;;;;;64.03;57.22;;;20.10;99.90;;;;;;5245898;28;20549;-70
2023/04/10 13:20:29;;;;;;;39.92;35.95;;;18.30;99.90;;;;;;5239442;28;20036;-72
2023/04/10 13:23:04;;;;;;;25.00;21.05;;;16.70;99.90;;;;;;5251218;28;20430;-71
2023/04/10 13:25:38;;;;;;;30.70;26.05;;;16.80;99.90;;;;;;5219945;28;20035;-71
2023/04/10 13:28:12;;;;;;;21.08;17.52;;;19.60;99.90;;;;;;5214145;28;20033;-70
2023/04/10 13:30:43;;;;;;;14.77;11.93;;;21.50;99.90;;;;;;5228669;28;20032;-71